createdAt,value
2023-12-14T00:01:55.766Z,8.01
2023-12-14T00:04:22.661Z,8.05
2023-12-14T00:06:49.634Z,8.05
2023-12-14T00:09:16.745Z,8.09
2023-12-14T00:11:43.702Z,8.13
2023-12-14T00:14:10.938Z,8.13
2023-12-14T00:16:37.702Z,8.13
2023-12-14T00:19:04.639Z,8.15
2023-12-14T00:21:31.979Z,8.17
2023-12-14T00:23:58.730Z,8.18
2023-12-14T00:26:25.550Z,8.16
2023-12-14T00:29:00.392Z,8.13
2023-12-14T00:31:28.282Z,8.11
2023-12-14T00:33:55.324Z,8.09
2023-12-14T00:36:22.179Z,8.07
2023-12-14T00:38:48.918Z,8.04
2023-12-14T00:41:15.902Z,8.04
2023-12-14T00:43:42.981Z,8.03
2023-12-14T00:46:10.433Z,8.03
2023-12-14T00:48:37.406Z,8.03
2023-12-14T00:51:04.168Z,8.05
2023-12-14T00:53:30.865Z,8.05
2023-12-14T00:55:57.556Z,8.05
2023-12-14T00:58:24.429Z,8.05
2023-12-14T01:00:51.302Z,8.04
2023-12-14T01:03:18.273Z,8.02
2023-12-14T01:05:45.075Z,8.03
2023-12-14T01:08:12.038Z,8.01
2023-12-14T01:10:39.085Z,8.02
2023-12-14T01:13:05.758Z,8.03
2023-12-14T01:15:32.560Z,8.04
2023-12-14T01:17:59.411Z,8.06
2023-12-14T01:20:26.110Z,8.07
2023-12-14T01:22:53.029Z,8.10
2023-12-14T01:25:19.767Z,8.11
2023-12-14T01:27:46.567Z,8.13
2023-12-14T01:30:13.689Z,8.14
2023-12-14T01:32:40.452Z,8.20
2023-12-14T01:35:07.672Z,8.25
2023-12-14T01:37:34.837Z,8.29
2023-12-14T01:40:01.766Z,8.29
2023-12-14T01:42:28.842Z,8.28
2023-12-14T01:44:55.619Z,8.27
2023-12-14T01:47:22.601Z,8.26
2023-12-14T01:49:49.319Z,8.25
2023-12-14T01:52:16.032Z,8.26
2023-12-14T01:54:42.754Z,8.28
2023-12-14T01:57:09.509Z,8.29
2023-12-14T01:59:36.310Z,8.31
2023-12-14T02:02:04.138Z,8.32
2023-12-14T02:04:31.781Z,8.34
2023-12-14T02:06:58.634Z,8.36
2023-12-14T02:09:26.189Z,8.39
2023-12-14T02:11:53.142Z,8.41
2023-12-14T02:14:22.931Z,8.43
2023-12-14T02:16:49.744Z,8.43
2023-12-14T02:19:16.571Z,8.42
2023-12-14T02:21:43.429Z,8.39
2023-12-14T02:24:10.266Z,8.34
2023-12-14T02:26:37.021Z,8.32
2023-12-14T02:29:03.778Z,8.27
2023-12-14T02:31:30.640Z,8.21
2023-12-14T02:33:57.718Z,8.18
2023-12-14T02:36:24.409Z,8.17
2023-12-14T02:38:51.258Z,8.14
2023-12-14T02:41:18.011Z,8.14
2023-12-14T02:43:44.725Z,8.16
2023-12-14T02:46:13.223Z,8.20
2023-12-14T02:48:42.596Z,8.21
2023-12-14T02:51:13.818Z,8.20
2023-12-14T02:53:40.579Z,8.18
2023-12-14T02:56:07.889Z,8.18
2023-12-14T02:58:34.769Z,8.17
2023-12-14T03:01:01.533Z,8.14
2023-12-14T03:03:28.321Z,8.15
2023-12-14T03:05:56.303Z,8.14
2023-12-14T03:08:23.082Z,8.15
2023-12-14T03:10:49.851Z,8.14
2023-12-14T03:13:16.921Z,8.16
2023-12-14T03:15:44.318Z,8.19
2023-12-14T03:18:13.211Z,8.20
2023-12-14T03:20:40.114Z,8.23
2023-12-14T03:23:06.826Z,8.25
2023-12-14T03:25:33.580Z,8.26
2023-12-14T03:28:00.300Z,8.26
2023-12-14T03:30:28.319Z,8.27
2023-12-14T03:32:55.509Z,8.32
2023-12-14T03:35:22.345Z,8.33
2023-12-14T03:37:49.113Z,8.37
2023-12-14T03:40:16.219Z,8.35
2023-12-14T03:42:43.073Z,8.29
2023-12-14T03:45:10.168Z,8.27
2023-12-14T03:47:37.215Z,8.27
2023-12-14T03:50:04.460Z,8.25
2023-12-14T03:52:32.859Z,8.22
2023-12-14T03:54:59.873Z,8.20
2023-12-14T03:57:26.662Z,8.21
2023-12-14T03:59:53.965Z,8.19
2023-12-14T04:02:20.693Z,8.19
2023-12-14T04:04:48.408Z,8.20
2023-12-14T04:07:15.561Z,8.21
2023-12-14T04:09:42.502Z,8.20
2023-12-14T04:12:09.194Z,8.17
2023-12-14T04:14:35.973Z,8.16
2023-12-14T04:17:02.755Z,8.13
2023-12-14T04:19:29.557Z,8.12
2023-12-14T04:21:56.760Z,8.11
2023-12-14T04:24:23.435Z,8.20
2023-12-14T04:26:50.243Z,8.23
2023-12-14T04:29:17.590Z,8.24
2023-12-14T04:31:44.268Z,8.28
2023-12-14T04:34:15.579Z,8.28
2023-12-14T04:36:46.718Z,8.26
2023-12-14T04:39:13.440Z,8.26
2023-12-14T04:41:40.119Z,8.25
2023-12-14T04:44:06.881Z,8.25
2023-12-14T04:46:33.627Z,8.23
2023-12-14T04:49:00.361Z,8.24
2023-12-14T04:51:27.389Z,8.23
2023-12-14T04:53:54.156Z,8.22
2023-12-14T04:56:21.060Z,8.23
2023-12-14T04:58:47.674Z,8.24
2023-12-14T05:01:14.419Z,8.25
2023-12-14T05:03:41.552Z,8.28
2023-12-14T05:06:08.604Z,8.34
2023-12-14T05:08:35.454Z,8.39
2023-12-14T05:11:02.222Z,8.43
2023-12-14T05:13:29.059Z,8.46
2023-12-14T05:15:56.109Z,8.48
2023-12-14T05:18:41.706Z,8.47
2023-12-14T05:21:08.442Z,8.48
2023-12-14T05:23:35.149Z,8.47
2023-12-14T05:26:02.008Z,8.49
2023-12-14T05:28:29.222Z,8.49
2023-12-14T05:30:56.060Z,8.49
2023-12-14T05:33:23.018Z,8.50
2023-12-14T05:35:49.724Z,8.49
2023-12-14T05:38:16.485Z,8.51
2023-12-14T05:40:43.836Z,8.50
2023-12-14T05:43:11.588Z,8.50
2023-12-14T05:45:38.405Z,8.51
2023-12-14T05:48:06.766Z,8.50
2023-12-14T05:50:33.569Z,8.45
2023-12-14T05:53:00.303Z,8.43
2023-12-14T05:55:27.021Z,8.42
2023-12-14T05:57:53.725Z,8.39
2023-12-14T06:00:20.615Z,8.39
2023-12-14T06:02:47.392Z,8.37
2023-12-14T06:05:14.785Z,8.35
2023-12-14T06:07:41.860Z,8.34
2023-12-14T06:10:09.049Z,8.34
2023-12-14T06:12:36.095Z,8.37
2023-12-14T06:15:03.679Z,8.34
2023-12-14T06:17:31.511Z,8.34
2023-12-14T06:19:58.576Z,8.34
2023-12-14T06:22:25.396Z,8.32
2023-12-14T06:24:52.249Z,8.28
2023-12-14T06:27:19.061Z,8.24
2023-12-14T06:29:46.546Z,8.23
2023-12-14T06:32:13.320Z,8.19
2023-12-14T06:34:40.622Z,8.17
2023-12-14T06:37:07.350Z,8.17
2023-12-14T06:39:34.398Z,8.17
2023-12-14T06:42:00.931Z,8.14
2023-12-14T06:44:29.205Z,8.14
2023-12-14T06:46:56.654Z,8.09
2023-12-14T06:49:23.526Z,8.12
2023-12-14T06:51:50.338Z,8.12
2023-12-14T06:54:17.170Z,8.11
2023-12-14T06:56:44.158Z,8.12
2023-12-14T06:59:10.888Z,8.12
2023-12-14T07:01:37.623Z,8.11
2023-12-14T07:04:05.116Z,8.10
2023-12-14T07:06:32.296Z,8.09
2023-12-14T07:08:59.001Z,8.10
2023-12-14T07:11:25.785Z,8.10
2023-12-14T07:13:52.502Z,8.12
2023-12-14T07:16:19.360Z,8.12
2023-12-14T07:18:46.307Z,8.15
2023-12-14T07:21:12.929Z,8.15
2023-12-14T07:23:40.266Z,8.16
2023-12-14T07:26:08.317Z,8.18
2023-12-14T07:28:36.012Z,8.17
2023-12-14T07:31:03.247Z,8.18
2023-12-14T07:33:30.178Z,8.20
2023-12-14T07:35:57.009Z,8.23
2023-12-14T07:38:23.831Z,8.23
2023-12-14T07:40:51.512Z,8.21
2023-12-14T07:43:18.320Z,8.21
2023-12-14T07:45:45.424Z,8.22
2023-12-14T07:48:12.283Z,8.22
2023-12-14T07:50:39.421Z,8.22
2023-12-14T07:53:06.590Z,8.23
2023-12-14T07:55:33.390Z,8.24
2023-12-14T07:58:00.241Z,8.24
2023-12-14T08:00:27.036Z,8.28
2023-12-14T08:02:54.103Z,8.30
2023-12-14T08:05:20.876Z,8.35
2023-12-14T08:07:48.597Z,8.40
2023-12-14T08:10:15.424Z,8.47
2023-12-14T08:12:42.136Z,8.52
2023-12-14T08:15:09.575Z,8.55
2023-12-14T08:17:36.632Z,8.60
2023-12-14T08:20:05.863Z,8.60
2023-12-14T08:22:33.208Z,8.60
2023-12-14T08:25:00.090Z,8.59
2023-12-14T08:27:27.332Z,8.59
2023-12-14T08:29:54.072Z,8.60
2023-12-14T08:32:21.096Z,8.63
2023-12-14T08:34:48.630Z,8.64
2023-12-14T08:37:15.572Z,8.65
2023-12-14T08:39:43.611Z,8.66
2023-12-14T08:42:12.973Z,8.67
2023-12-14T08:44:41.401Z,8.69
2023-12-14T08:47:10.354Z,8.71
2023-12-14T08:49:37.270Z,8.71
2023-12-14T08:52:05.532Z,8.73
2023-12-14T08:54:32.295Z,8.70
2023-12-14T08:56:59.702Z,8.70
2023-12-14T08:59:26.572Z,8.70
2023-12-14T09:01:54.250Z,8.70
2023-12-14T09:04:22.292Z,8.70
2023-12-14T09:06:49.298Z,8.72
2023-12-14T09:09:16.116Z,8.73
2023-12-14T09:11:42.915Z,8.75
2023-12-14T09:14:09.723Z,8.80
2023-12-14T09:16:36.720Z,8.83
2023-12-14T09:19:03.651Z,8.84
2023-12-14T09:21:37.908Z,8.85
2023-12-14T09:24:13.522Z,8.79
2023-12-14T09:26:41.074Z,8.79
2023-12-14T09:29:08.406Z,8.83
2023-12-14T09:31:36.595Z,8.82
2023-12-14T09:34:03.721Z,8.80
2023-12-14T09:36:30.754Z,8.77
2023-12-14T09:38:57.505Z,8.74
2023-12-14T09:41:24.291Z,8.70
2023-12-14T09:43:51.498Z,8.70
2023-12-14T09:46:19.017Z,8.69
2023-12-14T09:48:48.653Z,8.68
2023-12-14T09:51:17.246Z,8.66
2023-12-14T09:53:44.419Z,8.62
2023-12-14T09:56:11.163Z,8.64
2023-12-14T09:58:38.129Z,8.61
2023-12-14T10:01:21.646Z,8.64
2023-12-14T10:03:48.569Z,8.66
2023-12-14T10:06:15.550Z,8.67
2023-12-14T10:08:54.583Z,8.69
2023-12-14T10:11:21.342Z,8.69
2023-12-14T10:13:48.132Z,8.68
2023-12-14T10:16:28.051Z,8.73
2023-12-14T10:18:54.913Z,8.79
2023-12-14T10:21:22.431Z,8.84
2023-12-14T10:23:49.595Z,8.85
2023-12-14T10:26:16.601Z,8.85
2023-12-14T10:28:44.199Z,8.86
2023-12-14T10:31:11.689Z,8.86
2023-12-14T10:33:39.466Z,8.87
2023-12-14T10:36:06.518Z,8.88
2023-12-14T10:38:33.294Z,8.89
2023-12-14T10:41:00.593Z,8.94
2023-12-14T10:45:58.225Z,8.95
2023-12-14T10:48:25.963Z,8.94
2023-12-14T10:50:54.772Z,8.90
2023-12-14T10:53:21.809Z,8.89
2023-12-14T10:55:49.202Z,8.94
2023-12-14T10:58:16.177Z,8.99
2023-12-14T11:00:43.824Z,9.02
2023-12-14T11:03:14.920Z,9.02
2023-12-14T11:05:41.977Z,9.04
2023-12-14T11:08:13.309Z,9.04
2023-12-14T11:10:53.689Z,9.06
2023-12-14T11:13:22.313Z,9.08
2023-12-14T11:15:51.882Z,9.08
2023-12-14T11:18:23.360Z,9.10
2023-12-14T11:20:58.740Z,9.09
2023-12-14T11:23:26.147Z,9.03
2023-12-14T11:25:58.105Z,8.97
2023-12-14T11:28:31.962Z,8.89
2023-12-14T11:30:59.593Z,8.90
2023-12-14T11:33:28.763Z,8.92
2023-12-14T11:35:56.581Z,8.94
2023-12-14T11:38:24.960Z,8.97
2023-12-14T11:40:52.428Z,9.00
2023-12-14T11:43:22.386Z,9.04
2023-12-14T11:45:50.748Z,9.07
2023-12-14T11:48:18.172Z,9.10
2023-12-14T11:50:45.781Z,9.12
2023-12-14T11:53:13.678Z,9.13
2023-12-14T11:55:44.918Z,9.15
2023-12-14T11:58:16.687Z,9.17
2023-12-14T12:00:44.024Z,9.19
2023-12-14T12:03:20.929Z,9.20
2023-12-14T12:05:50.701Z,9.23
2023-12-14T12:08:21.065Z,9.26
2023-12-14T12:10:49.740Z,9.27
2023-12-14T12:13:19.137Z,9.30
2023-12-14T12:15:47.306Z,9.34
2023-12-14T12:18:16.521Z,9.34
2023-12-14T12:20:43.695Z,9.34
2023-12-14T12:23:10.827Z,9.35
2023-12-14T12:25:38.099Z,9.36
2023-12-14T12:28:05.661Z,9.32
2023-12-14T12:30:33.146Z,9.32
2023-12-14T12:33:00.382Z,9.32
2023-12-14T12:35:27.520Z,9.34
2023-12-14T12:37:55.246Z,9.36
2023-12-14T12:40:23.925Z,9.37
2023-12-14T12:42:51.240Z,9.36
2023-12-14T12:45:27.431Z,9.35
2023-12-14T12:47:55.102Z,9.32
2023-12-14T12:50:22.050Z,9.33
2023-12-14T12:52:50.437Z,9.35
2023-12-14T12:55:17.879Z,9.39
2023-12-14T12:57:44.748Z,9.40
2023-12-14T13:00:15.225Z,9.34
2023-12-14T13:02:43.312Z,9.30
2023-12-14T13:05:13.930Z,9.27
2023-12-14T13:07:46.570Z,9.26
2023-12-14T13:10:24.866Z,9.23
2023-12-14T13:12:57.723Z,9.25
2023-12-14T13:15:28.534Z,9.30
2023-12-14T13:17:55.998Z,9.33
2023-12-14T13:20:23.199Z,9.35
2023-12-14T13:22:51.094Z,9.40
2023-12-14T13:25:18.268Z,9.43
2023-12-14T13:27:45.397Z,9.43
2023-12-14T13:30:18.457Z,9.43
2023-12-14T13:32:45.824Z,9.40
2023-12-14T13:35:12.929Z,9.37
2023-12-14T13:40:07.967Z,9.33
2023-12-14T13:42:38.008Z,9.37
2023-12-14T13:45:09.084Z,9.38
2023-12-14T13:47:36.233Z,9.35
2023-12-14T13:50:05.420Z,9.30
2023-12-14T13:52:32.292Z,9.24
2023-12-14T13:55:00.473Z,9.19
2023-12-14T13:57:28.686Z,9.18
2023-12-14T13:59:55.574Z,9.17
2023-12-14T14:02:23.038Z,9.17
2023-12-14T14:04:50.692Z,9.14
2023-12-14T14:07:17.459Z,9.16
2023-12-14T14:09:44.283Z,9.16
2023-12-14T14:12:11.043Z,9.15
2023-12-14T14:14:37.782Z,9.18
2023-12-14T14:17:07.550Z,9.19
2023-12-14T14:19:34.670Z,9.19
2023-12-14T14:22:01.272Z,9.17
2023-12-14T14:24:27.992Z,9.16
2023-12-14T14:26:54.692Z,9.12
2023-12-14T14:29:21.529Z,9.09
2023-12-14T14:31:48.415Z,9.03
2023-12-14T14:34:15.303Z,9.01
2023-12-14T14:36:42.228Z,8.99
2023-12-14T14:39:09.351Z,8.97
2023-12-14T14:41:36.061Z,8.95
2023-12-14T14:44:03.163Z,8.95
2023-12-14T14:46:30.020Z,8.92
2023-12-14T14:48:56.748Z,8.89
2023-12-14T14:51:23.393Z,8.86
2023-12-14T14:53:50.253Z,8.82
2023-12-14T14:56:16.916Z,8.79
2023-12-14T14:58:47.286Z,8.80
2023-12-14T15:01:14.364Z,8.80
2023-12-14T15:03:40.973Z,8.81
2023-12-14T15:06:08.044Z,8.81
2023-12-14T15:08:34.649Z,8.80
2023-12-14T15:11:01.648Z,8.80
2023-12-14T15:13:30.311Z,8.78
2023-12-14T15:15:57.271Z,8.77
2023-12-14T15:18:24.158Z,8.77
2023-12-14T15:20:52.800Z,8.76
2023-12-14T15:23:20.450Z,8.78
2023-12-14T15:25:47.343Z,8.81
2023-12-14T15:28:14.158Z,8.84
2023-12-14T15:30:40.926Z,8.86
2023-12-14T15:33:10.020Z,8.85
2023-12-14T15:35:37.510Z,8.83
2023-12-14T15:38:04.278Z,8.81
2023-12-14T15:40:30.944Z,8.83
2023-12-14T15:42:57.863Z,8.85
2023-12-14T15:45:24.381Z,8.87
2023-12-14T15:47:51.909Z,8.83
2023-12-14T15:50:18.987Z,8.86
2023-12-14T15:52:45.995Z,8.86
2023-12-14T15:55:12.709Z,8.88
2023-12-14T15:57:40.772Z,8.89
2023-12-14T16:00:08.026Z,8.91
2023-12-14T16:02:35.655Z,8.94
2023-12-14T16:05:02.962Z,8.98
2023-12-14T16:07:30.150Z,9.01
2023-12-14T16:09:56.798Z,9.01
2023-12-14T16:12:23.582Z,8.95
2023-12-14T16:14:50.279Z,8.88
2023-12-14T16:17:18.969Z,8.81
2023-12-14T16:19:49.290Z,8.73
2023-12-14T16:22:18.144Z,8.70
2023-12-14T16:24:44.846Z,8.66
2023-12-14T16:27:11.850Z,8.64
2023-12-14T16:29:38.474Z,8.61
2023-12-14T16:32:05.981Z,8.56
2023-12-14T16:34:33.179Z,8.53
2023-12-14T16:37:01.488Z,8.54
2023-12-14T16:39:31.014Z,8.55
2023-12-14T16:41:57.886Z,8.55
2023-12-14T16:44:27.686Z,8.52
2023-12-14T16:46:54.586Z,8.49
2023-12-14T16:49:21.246Z,8.44
2023-12-14T16:51:48.077Z,8.39
2023-12-14T16:54:14.757Z,8.34
2023-12-14T16:56:44.507Z,8.31
2023-12-14T16:59:14.503Z,8.30
2023-12-14T17:01:43.034Z,8.32
2023-12-14T17:04:10.028Z,8.34
2023-12-14T17:06:36.727Z,8.36
2023-12-14T17:09:04.057Z,8.34
2023-12-14T17:11:30.834Z,8.35
2023-12-14T17:13:57.649Z,8.35
2023-12-14T17:16:24.570Z,8.35
2023-12-14T17:18:52.007Z,8.32
2023-12-14T17:21:26.318Z,8.24
2023-12-14T17:23:54.640Z,8.20
2023-12-14T17:26:24.695Z,8.18
2023-12-14T17:28:55.269Z,8.17
2023-12-14T17:31:23.633Z,8.16
2023-12-14T17:33:51.048Z,8.15
2023-12-14T17:36:18.031Z,8.15
2023-12-14T17:38:44.767Z,8.19
2023-12-14T17:41:16.532Z,8.24
2023-12-14T17:43:44.411Z,8.30
2023-12-14T17:46:15.807Z,8.29
2023-12-14T17:48:42.907Z,8.26
2023-12-14T17:51:09.793Z,8.24
2023-12-14T17:53:37.726Z,8.22
2023-12-14T17:56:05.075Z,8.19
2023-12-14T17:58:31.898Z,8.17
2023-12-14T18:01:04.026Z,8.12
2023-12-14T18:03:33.439Z,8.05
2023-12-14T18:06:02.685Z,8.02
2023-12-14T18:08:30.424Z,8.02
2023-12-14T18:10:58.137Z,8.07
2023-12-14T18:13:26.887Z,8.12
2023-12-14T18:15:53.962Z,8.21
2023-12-14T18:18:20.916Z,8.29
2023-12-14T18:20:47.581Z,8.36
2023-12-14T18:23:14.369Z,8.40
2023-12-14T18:25:41.210Z,8.37
2023-12-14T18:28:08.061Z,8.32
2023-12-14T18:30:35.110Z,8.26
2023-12-14T18:33:02.157Z,8.22
2023-12-14T18:35:28.923Z,8.19
2023-12-14T18:37:57.716Z,8.17
2023-12-14T18:40:26.399Z,8.13
2023-12-14T18:42:53.760Z,8.11
2023-12-14T18:45:20.758Z,8.14
2023-12-14T18:47:48.035Z,8.13
2023-12-14T18:50:15.217Z,8.14
2023-12-14T18:52:42.291Z,8.17
2023-12-14T18:55:10.323Z,8.20
2023-12-14T18:57:37.327Z,8.23
2023-12-14T19:00:04.736Z,8.27
2023-12-14T19:02:32.497Z,8.33
2023-12-14T19:04:59.857Z,8.36
2023-12-14T19:07:26.774Z,8.43
2023-12-14T19:09:55.057Z,8.47
2023-12-14T19:12:21.969Z,8.51
2023-12-14T19:14:49.395Z,8.54
2023-12-14T19:17:16.235Z,8.59
2023-12-14T19:19:43.248Z,8.62
2023-12-14T19:22:09.913Z,8.67
2023-12-14T19:24:36.766Z,8.73
2023-12-14T19:27:04.265Z,8.78
2023-12-14T19:29:31.469Z,8.77
2023-12-14T19:31:58.452Z,8.75
2023-12-14T19:34:25.297Z,8.69
2023-12-14T19:36:52.085Z,8.66
2023-12-14T19:39:20.339Z,8.63
2023-12-14T19:41:48.424Z,8.53
2023-12-14T19:44:17.244Z,8.51
2023-12-14T19:46:44.442Z,8.54
2023-12-14T19:49:11.179Z,8.56
2023-12-14T19:51:41.082Z,8.58
2023-12-14T19:54:09.208Z,8.64
2023-12-14T19:56:36.169Z,8.68
2023-12-14T19:59:03.579Z,8.72
2023-12-14T20:01:34.228Z,8.70
2023-12-14T20:04:02.074Z,8.71
2023-12-14T20:06:29.608Z,8.69
2023-12-14T20:08:57.366Z,8.64
2023-12-14T20:11:24.334Z,8.62
2023-12-14T20:13:51.400Z,8.57
2023-12-14T20:16:18.010Z,8.53
2023-12-14T20:18:45.133Z,8.50
2023-12-14T20:21:12.114Z,8.49
2023-12-14T20:23:39.419Z,8.49
2023-12-14T20:26:06.391Z,8.49
2023-12-14T20:28:33.092Z,8.49
2023-12-14T20:31:00.001Z,8.47
2023-12-14T20:33:26.907Z,8.46
2023-12-14T20:35:55.004Z,8.48
2023-12-14T20:38:22.236Z,8.44
2023-12-14T20:40:49.068Z,8.44
2023-12-14T20:43:16.764Z,8.41
2023-12-14T20:45:43.620Z,8.41
2023-12-14T20:48:10.512Z,8.38
2023-12-14T20:50:38.232Z,8.32
2023-12-14T20:53:05.073Z,8.32
2023-12-14T20:55:31.925Z,8.33
2023-12-14T20:57:58.827Z,8.35
2023-12-14T21:00:25.725Z,8.33
2023-12-14T21:02:52.569Z,8.32
2023-12-14T21:05:20.784Z,8.33
2023-12-14T21:07:48.976Z,8.35
2023-12-14T21:10:16.094Z,8.38
2023-12-14T21:12:43.469Z,8.37
2023-12-14T21:15:10.825Z,8.34
2023-12-14T21:17:38.410Z,8.34
2023-12-14T21:20:06.484Z,8.35
2023-12-14T21:22:34.091Z,8.37
2023-12-14T21:25:04.814Z,8.32
2023-12-14T21:27:50.496Z,8.28
2023-12-14T21:30:20.549Z,8.24
2023-12-14T21:32:49.118Z,8.20
2023-12-14T21:35:16.783Z,8.18
2023-12-14T21:37:44.043Z,8.20
2023-12-14T21:40:11.362Z,8.17
2023-12-14T21:42:39.304Z,8.11
2023-12-14T21:45:06.589Z,8.06
2023-12-14T21:47:35.519Z,8.04
2023-12-14T21:50:02.769Z,8.03
2023-12-14T21:52:29.842Z,8.00
2023-12-14T21:54:56.486Z,8.01
2023-12-14T21:57:23.488Z,8.03
2023-12-14T21:59:50.524Z,8.06
2023-12-14T22:02:17.998Z,8.09
2023-12-14T22:04:45.307Z,8.08
2023-12-14T22:07:12.025Z,8.09
2023-12-14T22:09:38.927Z,8.08
2023-12-14T22:12:05.950Z,8.07
2023-12-14T22:14:32.888Z,8.04
2023-12-14T22:17:01.627Z,8.01
2023-12-14T22:19:28.970Z,7.99
2023-12-14T22:21:55.614Z,8.03
2023-12-14T22:24:22.361Z,8.09
2023-12-14T22:26:49.544Z,8.12
2023-12-14T22:29:16.287Z,8.14
2023-12-14T22:31:43.506Z,8.13
2023-12-14T22:34:12.011Z,8.11
2023-12-14T22:36:39.103Z,8.12
2023-12-14T22:39:05.969Z,8.14
2023-12-14T22:41:32.734Z,8.16
2023-12-14T22:43:59.412Z,8.16
2023-12-14T22:46:26.085Z,8.15
2023-12-14T22:48:52.927Z,8.15
2023-12-14T22:51:20.554Z,8.16
2023-12-14T22:53:47.510Z,8.15
2023-12-14T22:56:25.176Z,8.05
2023-12-14T22:58:52.941Z,8.02
2023-12-14T23:01:35.799Z,8.00
2023-12-14T23:04:04.175Z,7.91
2023-12-14T23:06:32.833Z,7.87
2023-12-14T23:09:00.453Z,7.86
2023-12-14T23:11:27.305Z,7.83
2023-12-14T23:13:54.123Z,7.80
2023-12-14T23:16:21.240Z,7.75
2023-12-14T23:18:48.041Z,7.67
2023-12-14T23:21:14.803Z,7.63
2023-12-14T23:23:41.422Z,7.60
2023-12-14T23:26:08.079Z,7.58
2023-12-14T23:28:34.700Z,7.55
2023-12-14T23:31:02.242Z,7.54
2023-12-14T23:33:30.185Z,7.49
2023-12-14T23:35:57.007Z,7.45
2023-12-14T23:38:23.963Z,7.41
2023-12-14T23:40:51.220Z,7.38
2023-12-14T23:43:18.575Z,7.33
2023-12-14T23:45:45.673Z,7.34
2023-12-14T23:48:12.498Z,7.35
2023-12-14T23:50:39.159Z,7.35
2023-12-14T23:53:05.875Z,7.36
2023-12-14T23:55:32.666Z,7.37
2023-12-14T23:57:59.401Z,7.39
